createdAt,value
2023-04-29T00:01:30.958Z,100273.81
2023-04-29T00:04:15.093Z,100253.47
2023-04-29T00:06:59.437Z,100229.94
2023-04-29T00:09:43.418Z,100203.22
2023-04-29T00:12:28.454Z,100234.66
2023-04-29T00:15:12.839Z,100225.25
2023-04-29T00:17:58.439Z,100222.97
2023-04-29T00:20:43.601Z,100264.72
2023-04-29T00:23:27.627Z,100181.41
2023-04-29T00:26:11.871Z,100224.69
2023-04-29T00:28:57.011Z,100262.19
2023-04-29T00:31:41.107Z,100210.59
2023-04-29T00:34:26.888Z,100256.50
2023-04-29T00:37:10.870Z,100269.50
2023-04-29T00:39:54.935Z,100254.78
2023-04-29T00:42:39.131Z,100227.78
2023-04-29T00:45:23.107Z,100220.81
2023-04-29T00:48:08.027Z,100210.84
2023-04-29T00:50:54.007Z,100233.16
2023-04-29T00:53:38.719Z,100221.88
2023-04-29T00:56:23.199Z,100270.28
2023-04-29T00:59:09.503Z,100218.56
2023-04-29T01:01:54.199Z,100264.38
2023-04-29T01:04:38.430Z,100223.94
2023-04-29T01:07:32.537Z,100225.13
2023-04-29T01:10:24.098Z,100223.94
2023-04-29T01:13:14.594Z,100253.06
2023-04-29T01:16:04.032Z,100258.88
2023-04-29T01:18:54.185Z,100224.50
2023-04-29T01:21:48.803Z,100253.72
2023-04-29T01:24:34.602Z,100218.59
2023-04-29T01:27:27.526Z,100265.47
2023-04-29T01:30:29.056Z,100243.97
2023-04-29T01:33:21.399Z,100217.50
2023-04-29T01:36:18.415Z,100259.84
2023-04-29T01:39:10.225Z,100267.00
2023-04-29T01:42:01.326Z,100262.84
2023-04-29T01:44:51.277Z,100225.59
2023-04-29T01:47:39.248Z,100237.50
2023-04-29T01:50:23.534Z,100271.53
2023-04-29T01:53:08.486Z,100221.94
2023-04-29T01:55:52.494Z,100213.00
2023-04-29T01:58:40.689Z,100233.31
2023-04-29T02:01:43.107Z,100232.97
2023-04-29T02:04:28.706Z,100270.84
2023-04-29T02:07:12.957Z,100250.22
2023-04-29T02:09:57.240Z,100227.00
2023-04-29T02:12:41.645Z,100271.66
2023-04-29T02:15:47.311Z,100217.00
2023-04-29T02:18:31.928Z,100217.53
2023-04-29T02:21:16.098Z,100227.53
2023-04-29T02:24:00.205Z,100220.94
2023-04-29T02:26:44.253Z,100217.66
2023-04-29T02:29:30.064Z,100257.94
2023-04-29T02:32:16.369Z,100223.88
2023-04-29T02:35:01.042Z,100226.41
2023-04-29T02:37:47.905Z,100274.69
2023-04-29T02:40:31.903Z,100271.84
2023-04-29T02:43:16.419Z,100231.50
2023-04-29T02:46:02.305Z,100224.47
2023-04-29T02:48:47.865Z,100231.41
2023-04-29T02:51:32.665Z,100172.22
2023-04-29T02:54:17.684Z,100178.66
2023-04-29T02:57:02.144Z,100258.31
2023-04-29T02:59:46.231Z,100236.06
2023-04-29T03:02:30.410Z,100235.91
2023-04-29T03:05:17.732Z,100227.97
2023-04-29T03:08:02.009Z,100202.50
2023-04-29T03:10:46.785Z,100202.94
2023-04-29T03:13:30.928Z,100196.94
2023-04-29T03:16:17.066Z,100233.94
2023-04-29T03:19:01.645Z,100270.03
2023-04-29T03:21:47.181Z,100276.72
2023-04-29T03:24:31.287Z,100263.84
2023-04-29T03:27:15.916Z,100252.63
2023-04-29T03:30:00.293Z,100261.16
2023-04-29T03:32:44.595Z,100229.88
2023-04-29T03:35:28.833Z,100176.41
2023-04-29T03:38:37.019Z,100269.75
2023-04-29T03:41:23.464Z,100244.16
2023-04-29T03:44:07.783Z,100234.44
2023-04-29T03:46:51.978Z,100276.06
2023-04-29T03:49:36.061Z,100283.09
2023-04-29T03:52:21.088Z,100278.22
2023-04-29T03:55:09.833Z,100225.19
2023-04-29T03:57:54.307Z,100208.47
2023-04-29T04:00:39.477Z,100244.41
2023-04-29T04:03:29.375Z,100248.22
2023-04-29T04:06:15.205Z,100242.59
2023-04-29T04:08:59.769Z,100237.75
2023-04-29T04:11:48.215Z,100196.41
2023-04-29T04:14:32.639Z,100277.53
2023-04-29T04:17:16.992Z,100278.88
2023-04-29T04:20:01.768Z,100278.91
2023-04-29T04:22:47.343Z,100276.84
2023-04-29T04:25:39.529Z,100236.19
2023-04-29T04:28:42.709Z,100273.78
2023-04-29T04:31:32.960Z,100235.16
2023-04-29T04:34:17.228Z,100267.44
2023-04-29T04:37:03.843Z,100235.88
2023-04-29T04:39:49.443Z,100273.09
2023-04-29T04:42:34.316Z,100277.00
2023-04-29T04:45:19.872Z,100241.69
2023-04-29T04:48:08.002Z,100280.09
2023-04-29T04:50:55.118Z,100275.81
2023-04-29T04:53:39.612Z,100235.44
2023-04-29T04:56:27.739Z,100249.28
2023-04-29T04:59:11.850Z,100272.78
2023-04-29T05:01:59.275Z,100237.06
2023-04-29T05:04:43.455Z,100241.31
2023-04-29T05:07:28.617Z,100277.31
2023-04-29T05:10:18.019Z,100224.53
2023-04-29T05:13:06.621Z,100244.50
2023-04-29T05:15:51.624Z,100278.91
2023-04-29T05:18:44.349Z,100242.59
2023-04-29T05:21:29.056Z,100246.53
2023-04-29T05:24:13.198Z,100280.97
2023-04-29T05:26:57.519Z,100241.38
2023-04-29T05:29:41.584Z,100287.34
2023-04-29T05:32:26.177Z,100198.44
2023-04-29T05:35:11.920Z,100285.03
2023-04-29T05:37:55.944Z,100277.50
2023-04-29T05:41:02.868Z,100217.91
2023-04-29T05:44:06.038Z,100224.75
2023-04-29T05:46:51.820Z,100260.66
2023-04-29T05:49:36.567Z,100275.78
2023-04-29T05:52:22.153Z,100273.22
2023-04-29T05:55:07.730Z,100273.50
2023-04-29T05:57:51.755Z,100233.50
2023-04-29T06:00:35.846Z,100268.03
2023-04-29T06:03:27.970Z,100269.91
2023-04-29T06:06:32.296Z,100265.03
2023-04-29T06:09:28.394Z,100261.41
2023-04-29T06:12:17.168Z,100255.28
2023-04-29T06:15:03.441Z,100259.88
2023-04-29T06:17:50.086Z,100230.00
2023-04-29T06:20:36.086Z,100216.50
2023-04-29T06:23:21.473Z,100228.94
2023-04-29T06:26:09.650Z,100220.56
2023-04-29T06:28:54.391Z,100274.53
2023-04-29T06:31:38.670Z,100258.44
2023-04-29T06:34:22.786Z,100230.88
2023-04-29T06:37:37.545Z,100224.75
2023-04-29T06:40:29.133Z,100263.59
2023-04-29T06:43:49.937Z,100255.84
2023-04-29T06:46:34.372Z,100246.28
2023-04-29T06:49:26.224Z,100268.47
2023-04-29T06:52:10.484Z,100268.88
2023-04-29T06:54:54.644Z,100222.25
2023-04-29T06:57:38.579Z,100259.22
2023-04-29T07:00:24.893Z,100220.84
2023-04-29T07:03:12.532Z,100265.72
2023-04-29T07:05:56.754Z,100187.47
2023-04-29T07:08:41.038Z,100251.06
2023-04-29T07:11:27.115Z,100262.06
2023-04-29T07:14:11.209Z,100272.56
2023-04-29T07:16:56.802Z,100260.84
2023-04-29T07:19:41.237Z,100229.03
2023-04-29T07:22:26.055Z,100263.00
2023-04-29T07:25:11.282Z,100221.41
2023-04-29T07:27:55.914Z,100264.53
2023-04-29T07:30:42.198Z,100276.47
2023-04-29T07:33:27.785Z,100228.56
2023-04-29T07:36:12.952Z,100266.28
2023-04-29T07:38:57.638Z,100249.94
2023-04-29T07:41:41.785Z,100274.88
2023-04-29T07:44:25.932Z,100186.72
2023-04-29T07:47:10.116Z,100259.91
2023-04-29T07:49:55.732Z,100272.81
2023-04-29T07:52:39.895Z,100261.31
2023-04-29T07:55:23.992Z,100219.09
2023-04-29T07:58:08.303Z,100244.19
2023-04-29T08:00:52.622Z,100255.78
2023-04-29T08:03:39.744Z,100191.19
2023-04-29T08:06:26.343Z,100248.19
2023-04-29T08:09:10.949Z,100206.94
2023-04-29T08:11:58.286Z,100258.50
2023-04-29T08:14:42.685Z,100205.50
2023-04-29T08:17:26.747Z,100230.28
2023-04-29T08:20:11.888Z,100208.03
2023-04-29T08:22:59.533Z,100222.31
2023-04-29T08:25:44.754Z,100248.94
2023-04-29T08:28:29.107Z,100154.72
2023-04-29T08:31:18.629Z,100214.81
2023-04-29T08:34:02.981Z,100217.97
2023-04-29T08:36:47.107Z,100181.81
2023-04-29T08:39:32.687Z,100213.91
2023-04-29T08:42:17.139Z,100164.94
2023-04-29T08:45:01.831Z,100223.13
2023-04-29T08:47:51.644Z,100158.19
2023-04-29T08:50:39.670Z,100195.13
2023-04-29T08:53:23.946Z,100216.34
2023-04-29T08:56:17.838Z,100170.63
2023-04-29T08:59:04.468Z,100180.56
2023-04-29T09:01:53.125Z,100176.31
2023-04-29T09:04:48.732Z,100208.69
2023-04-29T09:07:34.530Z,100193.03
2023-04-29T09:10:19.568Z,100196.69
2023-04-29T09:13:05.199Z,100156.91
2023-04-29T09:15:49.257Z,100149.81
2023-04-29T09:18:48.019Z,100155.88
2023-04-29T09:21:32.413Z,100168.41
2023-04-29T09:24:26.974Z,100184.97
2023-04-29T09:27:11.354Z,100170.41
2023-04-29T09:30:03.423Z,100175.19
2023-04-29T09:33:05.846Z,100181.59
2023-04-29T09:35:50.453Z,100171.81
2023-04-29T09:38:34.549Z,100164.91
2023-04-29T09:41:20.164Z,100093.53
2023-04-29T09:44:08.217Z,100144.16
2023-04-29T09:46:58.763Z,100137.47
2023-04-29T09:49:45.618Z,100128.44
2023-04-29T09:52:41.738Z,100141.41
2023-04-29T09:55:26.891Z,100129.28
2023-04-29T09:58:30.166Z,100107.56
2023-04-29T10:01:18.068Z,100136.69
2023-04-29T10:04:05.726Z,100128.00
2023-04-29T10:06:51.466Z,100119.41
2023-04-29T10:09:39.159Z,100099.09
2023-04-29T10:12:23.845Z,100096.53
2023-04-29T10:15:18.009Z,100081.56
2023-04-29T10:18:13.315Z,100121.41
2023-04-29T10:21:03.143Z,100089.75
2023-04-29T10:23:47.802Z,100080.34
2023-04-29T10:26:32.490Z,100114.13
2023-04-29T10:29:18.673Z,100107.41
2023-04-29T10:32:03.723Z,100107.81
2023-04-29T10:34:48.124Z,100097.91
2023-04-29T10:37:34.347Z,100076.19
2023-04-29T10:40:21.403Z,100088.66
2023-04-29T10:43:05.869Z,100073.69
2023-04-29T10:45:49.930Z,100066.88
2023-04-29T10:48:34.046Z,100100.97
2023-04-29T10:51:31.779Z,100098.19
2023-04-29T10:54:21.183Z,100057.81
2023-04-29T10:57:05.278Z,100063.16
2023-04-29T10:59:49.315Z,100088.63
2023-04-29T11:02:33.304Z,100089.72
2023-04-29T11:05:18.718Z,100051.72
2023-04-29T11:08:12.786Z,100050.38
2023-04-29T11:11:02.814Z,100040.41
2023-04-29T11:13:48.150Z,100069.53
2023-04-29T11:16:32.210Z,100041.75
2023-04-29T11:19:17.143Z,100044.19
2023-04-29T11:22:17.811Z,100088.66
2023-04-29T11:25:04.140Z,100063.22
2023-04-29T11:27:55.580Z,100048.75
2023-04-29T11:30:40.269Z,100065.66
2023-04-29T11:33:24.280Z,100042.63
2023-04-29T11:36:09.358Z,100042.63
2023-04-29T11:38:53.322Z,100021.78
2023-04-29T11:41:37.703Z,100014.97
2023-04-29T11:44:24.490Z,100006.03
2023-04-29T11:47:09.142Z,99998.06
2023-04-29T11:49:53.501Z,100043.59
2023-04-29T11:52:38.899Z,100050.28
2023-04-29T11:55:22.848Z,100008.22
2023-04-29T11:58:06.770Z,100002.91
2023-04-29T12:00:52.535Z,100019.03
2023-04-29T12:03:36.904Z,99978.56
2023-04-29T12:06:21.013Z,99961.81
2023-04-29T12:09:05.367Z,99997.25
2023-04-29T12:11:51.082Z,99984.72
2023-04-29T12:14:35.214Z,99969.63
2023-04-29T12:17:21.445Z,100002.22
2023-04-29T12:20:06.381Z,100006.13
2023-04-29T12:22:50.536Z,100009.16
2023-04-29T12:25:34.682Z,99985.16
2023-04-29T12:28:18.894Z,99965.81
2023-04-29T12:31:03.605Z,99979.38
2023-04-29T12:33:49.082Z,99998.78
2023-04-29T12:36:33.334Z,100007.13
2023-04-29T12:39:17.925Z,100000.75
2023-04-29T12:42:03.278Z,100004.34
2023-04-29T12:44:48.350Z,99987.06
2023-04-29T12:47:34.805Z,99947.47
2023-04-29T12:50:20.619Z,99991.00
2023-04-29T12:53:05.341Z,99992.16
2023-04-29T12:55:50.215Z,99965.72
2023-04-29T12:58:35.135Z,99969.44
2023-04-29T13:01:19.363Z,99970.69
2023-04-29T13:04:05.405Z,99979.72
2023-04-29T13:06:54.544Z,99965.03
2023-04-29T13:09:41.663Z,99938.34
2023-04-29T13:12:25.981Z,99958.34
2023-04-29T13:15:11.585Z,99946.03
2023-04-29T13:17:55.833Z,99960.19
2023-04-29T13:20:42.532Z,100003.31
2023-04-29T13:23:28.381Z,99947.75
2023-04-29T13:26:12.617Z,99952.91
2023-04-29T13:28:56.784Z,99948.28
2023-04-29T13:31:40.917Z,99971.88
2023-04-29T13:34:25.070Z,99976.13
2023-04-29T13:37:09.115Z,99924.88
2023-04-29T13:39:57.508Z,99967.13
2023-04-29T13:42:48.923Z,99958.09
2023-04-29T13:45:38.873Z,99910.75
2023-04-29T13:48:55.033Z,99934.69
2023-04-29T13:57:55.306Z,99959.25
2023-04-29T14:00:25.079Z,99963.50
2023-04-29T14:03:13.930Z,99959.63
2023-04-29T14:05:57.924Z,99968.63
2023-04-29T14:08:42.052Z,99962.19
2023-04-29T14:11:26.427Z,99931.94
2023-04-29T14:14:12.050Z,99956.94
2023-04-29T14:16:56.072Z,99951.13
2023-04-29T14:19:40.214Z,99924.03
2023-04-29T14:22:24.257Z,99908.81
2023-04-29T14:25:09.645Z,99944.91
2023-04-29T14:27:53.713Z,99961.16
2023-04-29T14:30:39.049Z,99925.97
2023-04-29T14:33:23.105Z,99915.41
2023-04-29T14:36:08.534Z,99924.00
2023-04-29T14:38:52.604Z,99951.50
2023-04-29T14:41:36.621Z,99949.47
2023-04-29T14:44:20.655Z,99953.78
2023-04-29T14:47:06.206Z,99951.69
2023-04-29T14:49:50.373Z,99946.09
2023-04-29T14:52:34.448Z,99958.00
2023-04-29T14:55:18.612Z,99906.09
2023-04-29T14:58:05.119Z,99930.69
2023-04-29T15:00:49.507Z,99930.16
2023-04-29T15:06:24.261Z,99938.81
2023-04-29T15:09:08.488Z,99916.59
2023-04-29T15:11:52.545Z,99945.28
2023-04-29T15:14:36.748Z,99924.53
2023-04-29T15:17:21.048Z,99923.91
2023-04-29T15:20:08.049Z,99947.84
2023-04-29T15:22:52.155Z,99914.00
2023-04-29T15:25:36.625Z,99947.75
2023-04-29T15:28:21.019Z,99944.28
2023-04-29T15:31:05.679Z,99875.69
2023-04-29T15:33:49.914Z,99952.22
2023-04-29T15:36:35.488Z,99957.81
2023-04-29T15:39:19.527Z,99952.03
2023-04-29T15:42:04.046Z,99924.13
2023-04-29T15:44:48.141Z,99915.66
2023-04-29T15:47:33.925Z,99920.88
2023-04-29T15:50:18.196Z,99921.78
2023-04-29T15:53:03.663Z,99956.59
2023-04-29T15:55:47.594Z,99928.19
2023-04-29T15:58:31.631Z,99955.00
2023-04-29T16:01:16.071Z,99913.69
2023-04-29T16:04:00.231Z,99967.19
2023-04-29T16:06:44.510Z,99956.63
2023-04-29T16:09:30.231Z,99962.19
2023-04-29T16:12:14.434Z,99957.00
2023-04-29T16:14:58.546Z,99926.81
2023-04-29T16:17:42.660Z,99926.59
2023-04-29T16:20:27.204Z,99971.50
2023-04-29T16:23:11.227Z,99949.28
2023-04-29T16:25:56.859Z,99935.97
2023-04-29T16:28:41.134Z,99966.25
2023-04-29T16:31:25.289Z,99942.81
2023-04-29T16:34:09.364Z,99953.25
2023-04-29T16:36:53.507Z,99924.84
2023-04-29T16:39:37.556Z,99981.75
2023-04-29T16:42:22.936Z,99950.03
2023-04-29T16:45:08.142Z,99977.28
2023-04-29T16:47:52.365Z,99940.97
2023-04-29T16:50:37.729Z,99979.66
2023-04-29T16:53:21.794Z,99934.56
2023-04-29T16:56:06.294Z,99984.97
2023-04-29T16:58:51.944Z,99979.66
2023-04-29T17:01:35.931Z,99988.28
2023-04-29T17:04:20.054Z,99949.72
2023-04-29T17:07:04.242Z,99992.00
2023-04-29T17:09:48.600Z,99951.03
2023-04-29T17:12:33.189Z,99973.59
2023-04-29T17:15:18.649Z,99990.16
2023-04-29T17:18:03.133Z,99923.63
2023-04-29T17:20:48.852Z,99949.34
2023-04-29T17:23:34.629Z,99995.38
2023-04-29T17:26:18.520Z,99990.91
2023-04-29T17:29:02.547Z,99997.72
2023-04-29T17:31:54.503Z,99991.97
2023-04-29T17:34:38.853Z,99974.44
2023-04-29T17:37:25.193Z,100002.13
2023-04-29T17:40:10.723Z,99975.25
2023-04-29T17:42:54.929Z,99970.69
2023-04-29T17:45:41.694Z,100016.78
2023-04-29T17:48:27.264Z,99977.91
2023-04-29T17:51:11.319Z,100022.84
2023-04-29T17:53:55.408Z,99963.56
2023-04-29T17:56:39.588Z,99998.25
2023-04-29T17:59:23.760Z,100023.03
2023-04-29T18:02:08.280Z,99997.06
2023-04-29T18:04:54.087Z,99986.06
2023-04-29T18:07:38.134Z,99980.47
2023-04-29T18:10:22.200Z,100028.47
2023-04-29T18:13:06.174Z,100022.38
2023-04-29T18:15:50.166Z,100022.56
2023-04-29T18:18:34.690Z,100027.97
2023-04-29T18:21:23.403Z,100016.38
2023-04-29T18:24:08.113Z,100027.44
2023-04-29T18:26:52.181Z,99988.13
2023-04-29T18:29:36.129Z,99949.91
2023-04-29T18:32:20.187Z,99998.25
2023-04-29T18:35:04.289Z,100015.81
2023-04-29T18:37:49.887Z,100040.09
2023-04-29T18:40:33.899Z,100001.53
2023-04-29T18:43:22.502Z,100029.28
2023-04-29T18:46:06.592Z,100033.09
2023-04-29T18:48:50.968Z,99980.91
2023-04-29T18:51:35.054Z,99970.97
2023-04-29T18:54:20.579Z,100032.72
2023-04-29T18:57:05.175Z,100002.75
2023-04-29T18:59:49.110Z,99980.56
2023-04-29T19:02:33.400Z,100029.91
2023-04-29T19:05:17.550Z,100023.78
2023-04-29T19:08:01.579Z,99998.09
2023-04-29T19:10:47.086Z,100033.47
2023-04-29T19:13:31.098Z,100005.19
2023-04-29T19:16:15.158Z,100018.72
2023-04-29T19:18:59.369Z,99988.78
2023-04-29T19:21:43.789Z,99934.47
2023-04-29T19:24:27.889Z,99982.47
2023-04-29T19:27:13.392Z,99971.53
2023-04-29T19:29:57.438Z,99987.94
2023-04-29T19:32:41.519Z,99976.44
2023-04-29T19:35:25.667Z,99987.59
2023-04-29T19:38:09.722Z,99982.03
2023-04-29T19:40:55.969Z,99975.84
2023-04-29T19:43:41.248Z,100013.16
2023-04-29T19:46:25.507Z,99994.97
2023-04-29T19:49:09.796Z,99994.50
2023-04-29T19:51:54.256Z,99950.78
2023-04-29T19:54:38.818Z,99954.25
2023-04-29T19:57:22.778Z,99959.13
2023-04-29T20:00:09.667Z,99963.69
2023-04-29T20:02:53.815Z,99972.47
2023-04-29T20:05:37.853Z,99963.69
2023-04-29T20:08:21.939Z,99950.94
2023-04-29T20:11:05.968Z,99952.28
2023-04-29T20:13:50.330Z,99944.75
2023-04-29T20:16:35.871Z,99982.03
2023-04-29T20:19:19.829Z,99946.97
2023-04-29T20:22:03.878Z,99985.53
2023-04-29T20:24:47.820Z,99941.41
2023-04-29T20:27:31.955Z,99986.09
2023-04-29T20:30:15.977Z,99954.63
2023-04-29T20:33:01.986Z,99979.34
2023-04-29T20:35:45.995Z,99977.97
2023-04-29T20:38:30.056Z,99984.09
2023-04-29T20:41:14.160Z,99943.16
2023-04-29T20:43:58.757Z,99932.38
2023-04-29T20:46:46.162Z,99978.28
2023-04-29T20:49:31.567Z,99968.03
2023-04-29T20:52:15.800Z,99932.63
2023-04-29T20:55:00.002Z,99970.63
2023-04-29T20:57:43.981Z,99933.38
2023-04-29T21:00:28.085Z,99930.38
2023-04-29T21:03:12.134Z,99934.69
2023-04-29T21:05:58.229Z,99970.16
2023-04-29T21:08:43.067Z,99936.72
2023-04-29T21:11:27.182Z,99909.38
2023-04-29T21:14:13.180Z,99928.91
2023-04-29T21:16:57.360Z,99928.38
2023-04-29T21:19:41.408Z,99924.16
2023-04-29T21:22:26.830Z,99926.72
2023-04-29T21:25:10.895Z,99960.91
2023-04-29T21:27:54.864Z,99960.00
2023-04-29T21:30:38.890Z,99938.63
2023-04-29T21:33:22.887Z,99947.44
2023-04-29T21:36:07.170Z,99950.22
2023-04-29T21:38:52.966Z,99955.75
2023-04-29T21:41:40.011Z,99911.66
2023-04-29T21:44:24.176Z,99899.28
2023-04-29T21:47:09.105Z,99938.56
2023-04-29T21:49:55.389Z,99893.47
2023-04-29T21:52:39.609Z,99901.88
2023-04-29T21:55:25.304Z,99896.13
2023-04-29T21:58:09.340Z,99848.41
2023-04-29T22:01:01.613Z,99914.88
2023-04-29T22:03:45.854Z,99929.03
2023-04-29T22:06:29.818Z,99911.94
2023-04-29T22:09:13.807Z,99917.59
2023-04-29T22:11:59.214Z,99904.72
2023-04-29T22:14:43.263Z,99916.63
2023-04-29T22:17:27.234Z,99908.53
2023-04-29T22:20:13.974Z,99916.19
2023-04-29T22:22:58.185Z,99872.19
2023-04-29T22:25:42.170Z,99862.34
2023-04-29T22:28:27.617Z,99911.44
2023-04-29T22:31:11.680Z,99907.09
2023-04-29T22:33:55.584Z,99896.94
2023-04-29T22:36:40.159Z,99809.59
2023-04-29T22:39:24.074Z,99846.78
2023-04-29T22:42:08.122Z,99905.22
2023-04-29T22:44:53.671Z,99855.78
2023-04-29T22:47:37.756Z,99891.13
2023-04-29T22:50:21.786Z,99881.69
2023-04-29T22:53:05.727Z,99863.25
2023-04-29T22:55:53.281Z,99859.81
2023-04-29T22:58:37.270Z,99844.47
2023-04-29T23:01:22.725Z,99886.19
2023-04-29T23:04:07.019Z,99879.34
2023-04-29T23:06:51.086Z,99879.84
2023-04-29T23:09:35.122Z,99827.31
2023-04-29T23:12:19.902Z,99866.78
2023-04-29T23:15:04.502Z,99856.72
2023-04-29T23:17:50.174Z,99804.81
2023-04-29T23:20:34.140Z,99816.03
2023-04-29T23:23:18.163Z,99860.53
2023-04-29T23:26:02.130Z,99821.84
2023-04-29T23:28:46.215Z,99813.78
2023-04-29T23:31:30.251Z,99820.63
2023-04-29T23:34:17.995Z,99851.22
2023-04-29T23:37:02.599Z,99814.53
2023-04-29T23:39:46.602Z,99825.28
2023-04-29T23:42:30.500Z,99851.13
2023-04-29T23:45:14.500Z,99863.13
2023-04-29T23:47:58.470Z,99853.94
2023-04-29T23:50:43.893Z,99801.69
2023-04-29T23:53:27.864Z,99775.72
2023-04-29T23:56:12.061Z,99853.75
2023-04-29T23:58:56.037Z,99841.53
